»·PEaware :: VRD554 PHNL-KSFO

VRD554 :: PHNL-KSFO

FLIGHT INFORMATION

Flight Status: Arrived
Operator:
Virgin America
More flights by this operator :: More flights under this callsign
Pilot: Drew L. (13237)
Aircraft: AIRBUS A320
(A320)
More flights by this aircraft type
Origin: PHNL Honolulu Intl
United States
Destination: KSFO San Francisco Intl
United States
More flights between these airports :: More routes between these airports
Route: MKK4 CLUTS R465 CINNY PIRAT OSI
File this flight plan on PilotEdge
Remarks: PBN / A1B1C1D1O1S1 DOF / 171230 REG / N320SB EET / KZAK0047 KZOA0408 OPR / VRD PER / C RALT / PHTO KSFO RMK / TCAS SIMBRIEF
Altitude:
(Current/Filed)
39,000ft
Speed:
(Current/Filed)
454kts
Departed: 30-Dec-17 01:45 PM
Arrived: 30-Dec-17 06:22 PM
Distance/Time
Traveled:
2081nm/4:37
Distance/Time
To Go:
Arrived

Flight Plot

Page will automatically refresh every two minutes.

Flight plan parsing failed; only flown route is shown


Map Options




Map Legend


Flown Route
Filed Route
Departure Airport
Arrival Airport
Navaid (VOR, NDB)
Fix

Horizontal Profiles

Position Reports

Time Latitude Longitude Heading Altitude Ground
Speed
30-Dec-17 13:20 21.330468 -157.919570 279 22ft 0kts
30-Dec-17 13:21 21.330468 -157.919570 279 22ft 0kts
30-Dec-17 13:22 21.330468 -157.919570 279 22ft 0kts
30-Dec-17 13:23 21.330468 -157.919570 279 22ft 0kts
30-Dec-17 13:24 21.330468 -157.919570 279 22ft 0kts
30-Dec-17 13:25 21.330468 -157.919570 279 22ft 0kts
30-Dec-17 13:26 21.330468 -157.919570 279 22ft 0kts
30-Dec-17 13:27 21.330468 -157.919570 279 22ft 0kts
30-Dec-17 13:28 21.330468 -157.919570 279 22ft 0kts
30-Dec-17 13:29 21.330468 -157.919570 279 22ft 0kts
30-Dec-17 13:30 21.330468 -157.919570 279 22ft 0kts
30-Dec-17 13:31 21.330468 -157.919570 279 22ft 0kts
30-Dec-17 13:32 21.330468 -157.919570 279 22ft 0kts
30-Dec-17 13:33 21.330468 -157.919570 279 22ft 0kts
30-Dec-17 13:34 21.330468 -157.919570 279 22ft 0kts
30-Dec-17 13:35 21.330468 -157.919570 279 22ft 0kts
30-Dec-17 13:36 21.330468 -157.919570 279 22ft 0kts
30-Dec-17 13:37 21.330468 -157.919570 279 22ft 0kts
30-Dec-17 13:38 21.330421 -157.919261 278 22ft 3kts
30-Dec-17 13:39 21.330362 -157.917768 273 22ft 0kts
30-Dec-17 13:40 21.330363 -157.917769 274 22ft 0kts
30-Dec-17 13:41 21.330363 -157.917769 274 22ft 0kts
30-Dec-17 13:42 21.330363 -157.917769 274 22ft 0kts
30-Dec-17 13:43 21.330363 -157.917769 274 22ft 0kts
30-Dec-17 13:44 21.329556 -157.918264 189 22ft 15kts
30-Dec-17 13:45 21.325044 -157.917492 144 22ft 18kts
30-Dec-17 13:46 21.320599 -157.913896 142 22ft 15kts
30-Dec-17 13:47 21.320539 -157.913846 142 22ft 0kts
30-Dec-17 13:48 21.319300 -157.916569 221 22ft 23kts
30-Dec-17 13:49 21.314612 -157.923221 233 22ft 24kts
30-Dec-17 13:50 21.313691 -157.926731 325 22ft 10kts
30-Dec-17 13:51 21.320943 -157.917164 52 140ft 151kts
30-Dec-17 13:52 21.347505 -157.879745 74 3375ft 190kts
30-Dec-17 13:53 21.322226 -157.820887 127 6545ft 270kts
30-Dec-17 13:54 21.297383 -157.743436 104 10528ft 289kts
30-Dec-17 13:55 21.276637 -157.667350 104 12048ft 347kts
30-Dec-17 13:56 21.248409 -157.564776 105 14772ft 366kts
30-Dec-17 13:57 21.220111 -157.462320 107 17455ft 376kts
30-Dec-17 13:58 21.192190 -157.361680 108 19089ft 394kts
30-Dec-17 13:59 21.164714 -157.262950 108 20189ft 419kts
30-Dec-17 14:00 21.160005 -157.143007 60 21673ft 429kts
30-Dec-17 14:01 21.231769 -157.043839 47 23636ft 424kts
30-Dec-17 14:02 21.306419 -156.945431 46 25146ft 432kts
30-Dec-17 14:03 21.382451 -156.844863 46 26540ft 439kts
30-Dec-17 14:04 21.453206 -156.751103 46 27689ft 445kts
30-Dec-17 14:05 21.531633 -156.646980 46 28862ft 451kts
30-Dec-17 14:06 21.610695 -156.541816 46 30009ft 454kts
30-Dec-17 14:07 21.689162 -156.437239 45 31473ft 447kts
30-Dec-17 14:08 21.766167 -156.334419 45 32815ft 440kts
30-Dec-17 14:09 21.842114 -156.232814 44 33977ft 435kts
30-Dec-17 14:10 21.917708 -156.131498 44 34905ft 432kts
30-Dec-17 14:11 21.992333 -156.031291 43 35775ft 429kts
30-Dec-17 14:12 22.066848 -155.931043 43 36529ft 427kts
30-Dec-17 14:13 22.137124 -155.836324 43 37121ft 428kts
30-Dec-17 14:14 22.211113 -155.736421 42 37772ft 426kts
30-Dec-17 14:15 22.284994 -155.636474 42 38317ft 426kts
30-Dec-17 14:16 22.358513 -155.536836 42 38741ft 426kts
30-Dec-17 14:17 22.432110 -155.436892 42 39129ft 426kts
30-Dec-17 14:18 22.501815 -155.342054 42 39237ft 423kts
30-Dec-17 14:19 22.574974 -155.242356 42 39239ft 423kts
30-Dec-17 14:20 22.647762 -155.142965 42 39245ft 426kts
30-Dec-17 14:21 22.721161 -155.042542 42 39253ft 426kts
30-Dec-17 14:22 22.794469 -154.942053 42 39250ft 426kts
30-Dec-17 14:23 22.867676 -154.841508 42 39235ft 426kts
30-Dec-17 14:24 22.940954 -154.740674 42 39234ft 427kts
30-Dec-17 14:25 23.013153 -154.638593 46 39237ft 432kts
30-Dec-17 14:26 23.079459 -154.529853 46 39231ft 433kts
30-Dec-17 14:27 23.134769 -154.439024 47 39242ft 435kts
30-Dec-17 14:28 23.212630 -154.310856 47 39260ft 436kts
30-Dec-17 14:29 23.267985 -154.219544 47 39244ft 436kts
30-Dec-17 14:30 23.334628 -154.109395 47 39239ft 436kts
30-Dec-17 14:31 23.401082 -153.999316 47 39238ft 436kts
30-Dec-17 14:32 23.467648 -153.888818 47 39231ft 437kts
30-Dec-17 14:33 23.534000 -153.778429 47 39235ft 437kts
30-Dec-17 14:34 23.600564 -153.667450 47 39242ft 438kts
30-Dec-17 14:35 23.666863 -153.556668 47 39237ft 438kts
30-Dec-17 14:36 23.733308 -153.445394 47 39242ft 439kts
30-Dec-17 14:37 23.799897 -153.333781 47 39244ft 439kts
30-Dec-17 14:38 23.866587 -153.222356 47 39231ft 439kts
30-Dec-17 14:39 23.933293 -153.110615 47 39234ft 440kts
30-Dec-17 14:40 23.999897 -152.998786 47 39245ft 441kts
30-Dec-17 14:41 24.066764 -152.886257 47 39244ft 442kts
30-Dec-17 14:42 24.133573 -152.773574 47 39253ft 444kts
30-Dec-17 14:43 24.200592 -152.660267 47 39271ft 445kts
30-Dec-17 14:44 24.267701 -152.546553 47 39261ft 445kts
30-Dec-17 14:45 24.334789 -152.432603 47 39251ft 445kts
30-Dec-17 14:46 24.401540 -152.318973 48 39243ft 445kts
30-Dec-17 14:47 24.468307 -152.205047 48 39228ft 445kts
30-Dec-17 14:48 24.535171 -152.090690 48 39227ft 445kts
30-Dec-17 14:49 24.601905 -151.976282 48 39240ft 446kts
30-Dec-17 14:50 24.668736 -151.861437 48 39241ft 447kts
30-Dec-17 14:51 24.735324 -151.746738 48 39246ft 448kts
30-Dec-17 14:52 24.802185 -151.631291 48 39253ft 448kts
30-Dec-17 14:53 24.869132 -151.515420 48 39248ft 449kts
30-Dec-17 14:54 24.935818 -151.399720 48 39248ft 450kts
30-Dec-17 14:55 25.002811 -151.283201 48 39248ft 450kts
30-Dec-17 14:56 25.069460 -151.167005 48 39235ft 450kts
30-Dec-17 14:57 25.136268 -151.050246 48 39246ft 452kts
30-Dec-17 14:58 25.203332 -150.932741 48 39269ft 453kts
30-Dec-17 14:59 25.270117 -150.815435 48 39262ft 454kts
30-Dec-17 15:00 25.337109 -150.697474 48 39255ft 454kts
30-Dec-17 15:01 25.403948 -150.579486 48 39239ft 454kts
30-Dec-17 15:02 25.470837 -150.461114 48 39241ft 455kts
30-Dec-17 15:03 25.537456 -150.342917 49 39211ft 455kts
30-Dec-17 15:04 25.604070 -150.224431 49 39211ft 455kts
30-Dec-17 15:05 25.670506 -150.105960 49 39205ft 455kts
30-Dec-17 15:06 25.737289 -149.986566 49 39217ft 456kts
30-Dec-17 15:07 25.804004 -149.866982 49 39228ft 457kts
30-Dec-17 15:08 25.870738 -149.747056 49 39223ft 458kts
30-Dec-17 15:09 25.937474 -149.626808 49 39229ft 459kts
30-Dec-17 15:10 26.004062 -149.506519 49 39230ft 459kts
30-Dec-17 15:11 26.071004 -149.385267 49 39223ft 460kts
30-Dec-17 15:12 26.134796 -149.269425 49 39224ft 461kts
30-Dec-17 15:13 26.201536 -149.147904 49 39234ft 461kts
30-Dec-17 15:14 26.268305 -149.026008 50 39228ft 462kts
30-Dec-17 15:15 26.334952 -148.904003 50 39230ft 463kts
30-Dec-17 15:16 26.401811 -148.781284 50 39229ft 463kts
30-Dec-17 15:17 26.468308 -148.658895 50 39222ft 463kts
30-Dec-17 15:18 26.534975 -148.535857 50 39226ft 464kts
30-Dec-17 15:19 26.601509 -148.412726 50 39226ft 464kts
30-Dec-17 15:20 26.667454 -148.290348 50 39216ft 465kts
30-Dec-17 15:21 26.733836 -148.166821 50 39216ft 465kts
30-Dec-17 15:22 26.800038 -148.043281 50 39221ft 465kts
30-Dec-17 15:23 26.866631 -147.918666 50 39224ft 466kts
30-Dec-17 15:24 26.932938 -147.794235 50 39233ft 467kts
30-Dec-17 15:25 26.999338 -147.669281 50 39229ft 468kts
30-Dec-17 15:26 27.065459 -147.544491 50 39232ft 469kts
30-Dec-17 15:27 27.132036 -147.418492 50 39238ft 470kts
30-Dec-17 15:28 27.198346 -147.292624 51 39233ft 471kts
30-Dec-17 15:29 27.264703 -147.166313 51 39230ft 471kts
30-Dec-17 15:30 27.330996 -147.039765 51 39228ft 471kts
30-Dec-17 15:31 27.397272 -146.912880 51 39222ft 471kts
30-Dec-17 15:32 27.463627 -146.785467 51 39227ft 472kts
30-Dec-17 15:33 27.529814 -146.657997 51 39232ft 472kts
30-Dec-17 15:34 27.595777 -146.530586 51 39226ft 473kts
30-Dec-17 15:35 27.661962 -146.402366 51 39233ft 474kts
30-Dec-17 15:36 27.727927 -146.274187 51 39226ft 473kts
30-Dec-17 15:37 27.793884 -146.145638 52 39215ft 474kts
30-Dec-17 15:38 27.859726 -146.016920 52 39226ft 475kts
30-Dec-17 15:39 27.925546 -145.887864 52 39228ft 475kts
30-Dec-17 15:40 27.991279 -145.758590 52 39233ft 476kts
30-Dec-17 15:41 28.057161 -145.628602 52 39239ft 477kts
30-Dec-17 15:42 28.123037 -145.498250 52 39233ft 478kts
30-Dec-17 15:43 28.188836 -145.367618 52 39246ft 479kts
30-Dec-17 15:44 28.254553 -145.236768 52 39238ft 479kts
30-Dec-17 15:45 28.320334 -145.105374 52 39224ft 479kts
30-Dec-17 15:46 28.385781 -144.974229 52 39227ft 480kts
30-Dec-17 15:47 28.451452 -144.842223 52 39231ft 480kts
30-Dec-17 15:48 28.516824 -144.710386 52 39230ft 481kts
30-Dec-17 15:49 28.582216 -144.578094 52 39235ft 481kts
30-Dec-17 15:50 28.647753 -144.445085 52 39236ft 481kts
30-Dec-17 15:51 28.712945 -144.312338 53 39228ft 482kts
30-Dec-17 15:52 28.778172 -144.179102 53 39226ft 482kts
30-Dec-17 15:53 28.843154 -144.045929 53 39223ft 482kts
30-Dec-17 15:54 28.908156 -143.912270 53 39231ft 483kts
30-Dec-17 15:55 28.973139 -143.778221 53 39239ft 484kts
30-Dec-17 15:56 29.038057 -143.643858 53 39234ft 484kts
30-Dec-17 15:57 29.102840 -143.509329 53 39241ft 485kts
30-Dec-17 15:58 29.167669 -143.374254 53 39246ft 486kts
30-Dec-17 15:59 29.232667 -143.238364 54 39234ft 486kts
30-Dec-17 16:00 29.296912 -143.103603 54 39232ft 486kts
30-Dec-17 16:01 29.361561 -142.967539 54 39229ft 486kts
30-Dec-17 16:02 29.426054 -142.831332 54 39230ft 487kts
30-Dec-17 16:03 29.490253 -142.695285 54 39236ft 487kts
30-Dec-17 16:04 29.554684 -142.558277 54 39232ft 488kts
30-Dec-17 16:05 29.618909 -142.421230 54 39236ft 488kts
30-Dec-17 16:06 29.682901 -142.284206 55 39233ft 488kts
30-Dec-17 16:07 29.746861 -142.146773 55 39220ft 488kts
30-Dec-17 16:08 29.810698 -142.009126 55 39230ft 489kts
30-Dec-17 16:09 29.874375 -141.871341 55 39235ft 489kts
30-Dec-17 16:10 29.938287 -141.732554 55 39236ft 490kts
30-Dec-17 16:11 30.001650 -141.594470 55 39240ft 490kts
30-Dec-17 16:12 30.065160 -141.455571 55 39239ft 491kts
30-Dec-17 16:13 30.128602 -141.316322 55 39235ft 491kts
30-Dec-17 16:14 30.191899 -141.176890 55 39236ft 491kts
30-Dec-17 16:15 30.255003 -141.037392 55 39231ft 492kts
30-Dec-17 16:16 30.318190 -140.897216 59 39162ft 494kts
30-Dec-17 16:17 30.381803 -140.755507 59 39149ft 499kts
30-Dec-17 16:18 30.445673 -140.612619 59 39198ft 502kts
30-Dec-17 16:19 30.509599 -140.468956 59 39212ft 502kts
30-Dec-17 16:20 30.573323 -140.325215 60 39201ft 502kts
30-Dec-17 16:21 30.636793 -140.181520 60 39183ft 501kts
30-Dec-17 16:22 30.700030 -140.037780 60 39175ft 501kts
30-Dec-17 16:23 30.762943 -139.894242 60 39170ft 501kts
30-Dec-17 16:24 30.826156 -139.749456 60 39156ft 501kts
30-Dec-17 16:25 30.888902 -139.605186 60 39161ft 501kts
30-Dec-17 16:26 30.951656 -139.460335 60 39157ft 501kts
30-Dec-17 16:27 31.013987 -139.315902 60 39152ft 501kts
30-Dec-17 16:28 31.076317 -139.170909 60 39146ft 500kts
30-Dec-17 16:29 31.137648 -139.027685 60 39147ft 500kts
30-Dec-17 16:30 31.199583 -138.882479 60 39149ft 501kts
30-Dec-17 16:31 31.251032 -138.761422 60 39154ft 501kts
30-Dec-17 16:32 31.323182 -138.590987 60 39159ft 501kts
30-Dec-17 16:33 31.374512 -138.469250 60 39160ft 501kts
30-Dec-17 16:34 31.435189 -138.324814 61 39157ft 501kts
30-Dec-17 16:35 31.506487 -138.154357 61 39149ft 501kts
30-Dec-17 16:36 31.567446 -138.007984 61 39150ft 501kts
30-Dec-17 16:37 31.618236 -137.885576 61 39153ft 501kts
30-Dec-17 16:38 31.689138 -137.714001 61 39157ft 501kts
30-Dec-17 16:39 31.739536 -137.591536 61 39158ft 502kts
30-Dec-17 16:40 31.799994 -137.444086 61 39159ft 502kts
30-Dec-17 16:41 31.860358 -137.296244 62 39156ft 501kts
30-Dec-17 16:42 31.920381 -137.148636 62 39150ft 501kts
30-Dec-17 16:43 31.980107 -137.001146 62 39150ft 501kts
30-Dec-17 16:44 32.039932 -136.852804 62 39154ft 502kts
30-Dec-17 16:45 32.099530 -136.704370 62 39160ft 502kts
30-Dec-17 16:46 32.159038 -136.555543 62 39158ft 502kts
30-Dec-17 16:47 32.218468 -136.406291 62 39156ft 502kts
30-Dec-17 16:48 32.277546 -136.257289 62 39151ft 502kts
30-Dec-17 16:49 32.336433 -136.108131 62 39145ft 502kts
30-Dec-17 16:50 32.395107 -135.958879 62 39147ft 502kts
30-Dec-17 16:51 32.453674 -135.809247 62 39152ft 502kts
30-Dec-17 16:52 32.512109 -135.659312 62 39155ft 502kts
30-Dec-17 16:53 32.570328 -135.509278 62 39157ft 502kts
30-Dec-17 16:54 32.628517 -135.358670 62 39156ft 502kts
30-Dec-17 16:55 32.686351 -135.208315 63 39149ft 502kts
30-Dec-17 16:56 32.743974 -135.057850 63 39146ft 502kts
30-Dec-17 16:57 32.801502 -134.906963 63 39149ft 502kts
30-Dec-17 16:58 32.859027 -134.755414 63 39155ft 503kts
30-Dec-17 16:59 32.916279 -134.603906 63 39157ft 503kts
30-Dec-17 17:00 32.973358 -134.452177 63 39158ft 503kts
30-Dec-17 17:01 33.030086 -134.300704 64 39155ft 503kts
30-Dec-17 17:02 33.086931 -134.148209 63 39136ft 503kts
30-Dec-17 17:03 33.143378 -133.996123 64 39155ft 503kts
30-Dec-17 17:04 33.199660 -133.843768 64 39155ft 503kts
30-Dec-17 17:05 33.255920 -133.690771 64 39156ft 503kts
30-Dec-17 17:06 33.311806 -133.538125 64 39154ft 503kts
30-Dec-17 17:07 33.367737 -133.384687 64 39155ft 503kts
30-Dec-17 17:08 33.423343 -133.231435 64 39152ft 503kts
30-Dec-17 17:09 33.478880 -133.077668 64 39153ft 503kts
30-Dec-17 17:10 33.534009 -132.924302 64 39152ft 503kts
30-Dec-17 17:11 33.589103 -132.770294 64 39154ft 503kts
30-Dec-17 17:12 33.644004 -132.616100 64 39155ft 504kts
30-Dec-17 17:13 33.698729 -132.461677 64 39158ft 504kts
30-Dec-17 17:14 33.753242 -132.307108 65 39156ft 503kts
30-Dec-17 17:15 33.807464 -132.152625 65 39147ft 503kts
30-Dec-17 17:16 33.861638 -131.997526 65 39149ft 504kts
30-Dec-17 17:17 33.915442 -131.842739 65 39153ft 504kts
30-Dec-17 17:18 33.969246 -131.687193 65 39157ft 504kts
30-Dec-17 17:19 34.022964 -131.531128 65 39159ft 504kts
30-Dec-17 17:20 34.076400 -131.375114 65 39158ft 504kts
30-Dec-17 17:21 34.129475 -131.219388 66 39152ft 504kts
30-Dec-17 17:22 34.182563 -131.062835 66 39147ft 504kts
30-Dec-17 17:23 34.235277 -130.906611 66 39150ft 504kts
30-Dec-17 17:24 34.287994 -130.749593 66 39155ft 504kts
30-Dec-17 17:25 34.340352 -130.592856 66 39158ft 505kts
30-Dec-17 17:26 34.392694 -130.435369 66 39162ft 505kts
30-Dec-17 17:27 34.444894 -130.277502 66 39158ft 504kts
30-Dec-17 17:28 34.496624 -130.120255 66 39150ft 504kts
30-Dec-17 17:29 34.548225 -129.962586 66 39148ft 504kts
30-Dec-17 17:30 34.599769 -129.804263 66 39153ft 504kts
30-Dec-17 17:31 34.650940 -129.646276 66 39158ft 505kts
30-Dec-17 17:32 34.701996 -129.487818 66 39159ft 505kts
30-Dec-17 17:33 34.752989 -129.328725 67 39157ft 505kts
30-Dec-17 17:34 34.803541 -129.170163 67 39152ft 505kts
30-Dec-17 17:35 34.854050 -129.010899 67 39149ft 505kts
30-Dec-17 17:36 34.904243 -128.851773 67 39153ft 505kts
30-Dec-17 17:37 34.954302 -128.692222 67 39157ft 505kts
30-Dec-17 17:38 35.004099 -128.532649 67 39160ft 505kts
30-Dec-17 17:39 35.053922 -128.372121 67 39160ft 505kts
30-Dec-17 17:40 35.102697 -128.214119 68 39154ft 505kts
30-Dec-17 17:41 35.151955 -128.053689 68 39148ft 505kts
30-Dec-17 17:42 35.201008 -127.893032 68 39152ft 505kts
30-Dec-17 17:43 35.249775 -127.732422 68 39157ft 505kts
30-Dec-17 17:44 35.298440 -127.571263 68 39160ft 506kts
30-Dec-17 17:45 35.346793 -127.410230 68 39163ft 506kts
30-Dec-17 17:46 35.395048 -127.248610 68 39157ft 505kts
30-Dec-17 17:47 35.439736 -127.098116 68 39152ft 505kts
30-Dec-17 17:48 35.487619 -126.935974 68 39152ft 506kts
30-Dec-17 17:49 35.535118 -126.774211 68 39156ft 506kts
30-Dec-17 17:50 35.582588 -126.611612 69 39158ft 506kts
30-Dec-17 17:51 35.629744 -126.449145 69 39160ft 506kts
30-Dec-17 17:52 35.676822 -126.286003 69 39158ft 506kts
30-Dec-17 17:53 35.723527 -126.123206 69 39153ft 506kts
30-Dec-17 17:54 35.776751 -125.963727 65 39162ft 504kts
30-Dec-17 17:55 35.830993 -125.805173 65 39158ft 504kts
30-Dec-17 17:56 35.885106 -125.646225 65 39151ft 503kts
30-Dec-17 17:57 35.939047 -125.486965 65 39151ft 504kts
30-Dec-17 17:58 35.992755 -125.327546 66 39151ft 504kts
30-Dec-17 17:59 36.046253 -125.167919 66 39150ft 503kts
30-Dec-17 18:00 36.099607 -125.007866 66 39149ft 504kts
30-Dec-17 18:01 36.152370 -124.848740 66 39152ft 504kts
30-Dec-17 18:02 36.218109 -124.697366 51 39159ft 501kts
30-Dec-17 18:03 36.299571 -124.557310 51 39163ft 501kts
30-Dec-17 18:04 36.380420 -124.417551 51 39156ft 501kts
30-Dec-17 18:05 36.454586 -124.288873 52 39151ft 501kts
30-Dec-17 18:06 36.533674 -124.151117 52 38994ft 501kts
30-Dec-17 18:07 36.614036 -124.010570 52 36877ft 498kts
30-Dec-17 18:08 36.692859 -123.872179 52 34714ft 489kts
30-Dec-17 18:09 36.770821 -123.734685 53 32133ft 488kts
30-Dec-17 18:10 36.848858 -123.596514 53 29280ft 488kts
30-Dec-17 18:11 36.926792 -123.457962 53 26082ft 492kts
30-Dec-17 18:12 37.004513 -123.319231 54 22965ft 485kts
30-Dec-17 18:13 37.080693 -123.182724 54 19807ft 473kts
30-Dec-17 18:14 37.151784 -123.054847 54 17051ft 452kts
30-Dec-17 18:15 37.220411 -122.930906 55 14260ft 429kts
30-Dec-17 18:16 37.270358 -122.809313 74 13108ft 372kts
30-Dec-17 18:17 37.297775 -122.691932 74 11781ft 339kts
30-Dec-17 18:18 37.323577 -122.580740 74 9801ft 332kts
30-Dec-17 18:19 37.348234 -122.474193 74 8246ft 293kts
30-Dec-17 18:20 37.369246 -122.383138 74 6907ft 258kts
30-Dec-17 18:21 37.387979 -122.306191 58 5388ft 238kts
30-Dec-17 18:22 37.430581 -122.264616 34 4087ft 241kts
30-Dec-17 18:23 37.485357 -122.228039 14 3498ft 215kts
30-Dec-17 18:24 37.538503 -122.213372 350 2648ft 186kts
30-Dec-17 18:25 37.569787 -122.261144 300 1604ft 180kts
30-Dec-17 18:26 37.589514 -122.305733 298 912ft 134kts
30-Dec-17 18:27 37.606074 -122.345131 300 291ft 127kts
30-Dec-17 18:28 37.619303 -122.376450 297 22ft 39kts
30-Dec-17 18:29 37.618364 -122.379741 154 22ft 19kts
30-Dec-17 18:30 37.616753 -122.380558 299 22ft 1kts
30-Dec-17 18:31 37.616761 -122.380576 299 22ft 0kts
30-Dec-17 18:32 37.616761 -122.380576 299 22ft 0kts
30-Dec-17 18:33 37.616761 -122.380576 299 22ft 0kts
30-Dec-17 18:34 37.616761 -122.380576 299 22ft 0kts
30-Dec-17 18:35 37.616761 -122.380576 299 22ft 0kts
30-Dec-17 18:36 37.616761 -122.380576 299 22ft 0kts
30-Dec-17 18:37 37.616761 -122.380576 299 22ft 0kts
30-Dec-17 18:38 37.616761 -122.380576 299 22ft 0kts
30-Dec-17 18:39 37.616761 -122.380576 299 22ft 0kts
30-Dec-17 18:40 37.616761 -122.380576 299 22ft 0kts
30-Dec-17 18:41 37.616761 -122.380576 299 22ft 0kts
30-Dec-17 18:42 37.616761 -122.380576 299 22ft 0kts

Navigation Log

Ident Type
Flight plan parsing failed, navigation log unavailable